createdAt,value
2019-04-04T00:02:56.363Z,0
2019-04-04T00:08:25.418Z,0
2019-04-04T00:13:56.338Z,0
2019-04-04T00:19:27.796Z,0
2019-04-04T00:24:57.969Z,0
2019-04-04T00:30:28.879Z,0
2019-04-04T00:36:00.620Z,0
2019-04-04T00:41:30.549Z,0
2019-04-04T00:47:01.671Z,0
2019-04-04T00:52:32.215Z,0
2019-04-04T00:58:03.091Z,0
2019-04-04T01:03:33.901Z,0
2019-04-04T01:09:04.830Z,0
2019-04-04T01:14:35.607Z,0
2019-04-04T01:20:06.516Z,0
2019-04-04T01:25:37.293Z,0
2019-04-04T01:31:08.196Z,0
2019-04-04T01:36:39.061Z,0
2019-04-04T01:42:09.947Z,0
2019-04-04T01:47:40.741Z,0
2019-04-04T01:53:11.616Z,0
2019-04-04T01:58:42.490Z,0
2019-04-04T02:04:13.342Z,0
2019-04-04T02:09:44.154Z,0
2019-04-04T02:15:15.164Z,0
2019-04-04T02:20:45.995Z,0
2019-04-04T02:26:16.806Z,0
2019-04-04T02:31:47.599Z,0
2019-04-04T02:37:20.460Z,0
2019-04-04T02:42:53.891Z,0
2019-04-04T02:48:23.120Z,0
2019-04-04T02:53:52.845Z,0
2019-04-04T02:59:22.174Z,0
2019-04-04T03:04:52.742Z,0
2019-04-04T03:10:23.677Z,0
2019-04-04T03:15:54.448Z,0
2019-04-04T03:21:25.320Z,0
2019-04-04T03:26:56.203Z,0
2019-04-04T03:32:27.020Z,0
2019-04-04T03:37:57.888Z,0
2019-04-04T03:43:28.677Z,0
2019-04-04T03:48:59.544Z,0
2019-04-04T03:54:30.410Z,0
2019-04-04T04:00:05.493Z,0
2019-04-04T04:05:35.377Z,0
2019-04-04T04:11:05.732Z,0
2019-04-04T04:16:35.816Z,0
2019-04-04T04:22:04.635Z,0
2019-04-04T04:27:35.457Z,0
2019-04-04T04:33:06.464Z,3.6
2019-04-04T04:38:37.323Z,0
2019-04-04T04:44:08.078Z,0
2019-04-04T04:49:38.976Z,0
2019-04-04T04:55:11.935Z,0
2019-04-04T05:00:40.620Z,0
2019-04-04T05:06:11.502Z,0
2019-04-04T05:11:42.324Z,0
2019-04-04T05:17:13.115Z,0
2019-04-04T05:22:44.023Z,0
2019-04-04T05:28:14.841Z,0
2019-04-04T05:33:45.671Z,0
2019-04-04T05:39:17.989Z,0
2019-04-04T05:44:47.352Z,0
2019-04-04T05:50:18.181Z,0
2019-04-04T05:55:49.012Z,0
2019-04-04T06:01:19.879Z,0
2019-04-04T06:06:50.787Z,0
2019-04-04T06:12:22.933Z,0
2019-04-04T06:17:52.524Z,0
2019-04-04T06:23:25.017Z,0
2019-04-04T06:28:54.318Z,0
2019-04-04T06:34:25.136Z,0
2019-04-04T06:39:58.366Z,0
2019-04-04T06:45:29.557Z,0
2019-04-04T06:50:57.876Z,0
2019-04-04T06:56:31.729Z,0
2019-04-04T07:01:59.663Z,0
2019-04-04T07:07:30.578Z,0
2019-04-04T07:13:14.726Z,0
2019-04-04T07:18:32.442Z,0
2019-04-04T07:24:03.288Z,0
2019-04-04T07:29:34.226Z,0
2019-04-04T07:35:05.080Z,0
2019-04-04T07:40:36.989Z,0
2019-04-04T07:46:15.946Z,0
2019-04-04T07:51:38.676Z,0
2019-04-04T07:57:08.616Z,0
2019-04-04T08:02:39.499Z,0
2019-04-04T08:08:10.435Z,0
2019-04-04T08:13:41.321Z,0
2019-04-04T08:19:12.269Z,0
2019-04-04T08:24:43.246Z,0
2019-04-04T08:30:14.149Z,0
2019-04-04T08:35:45.041Z,3.6
2019-04-04T08:41:16.000Z,0
2019-04-04T08:46:47.125Z,7.2
2019-04-04T08:52:20.615Z,0
2019-04-04T08:57:48.927Z,0
2019-04-04T09:03:20.651Z,0
2019-04-04T09:08:50.837Z,0
2019-04-04T09:14:21.828Z,0
2019-04-04T09:19:52.746Z,0
2019-04-04T09:25:23.754Z,0
2019-04-04T09:30:54.901Z,7.2
2019-04-04T09:36:25.771Z,7.2
2019-04-04T09:41:56.910Z,5.9
2019-04-04T09:47:28.091Z,10.7
2019-04-04T09:52:59.508Z,9.6
2019-04-04T09:58:30.595Z,5.9
2019-04-04T10:04:01.670Z,0
2019-04-04T10:09:32.955Z,10.7
2019-04-04T10:15:04.074Z,9.6
2019-04-04T10:20:35.817Z,10.7
2019-04-04T10:25:58.503Z,10.7
2019-04-04T10:31:22.240Z,9.6
2019-04-04T10:36:52.443Z,11.9
2019-04-04T10:42:23.847Z,8.4
2019-04-04T10:47:46.783Z,9.6
2019-04-04T10:53:18.029Z,7.2
2019-04-04T10:58:44.339Z,0
2019-04-04T11:04:09.203Z,0
2019-04-04T11:09:41.594Z,0
2019-04-04T11:15:02.229Z,10.7
2019-04-04T11:20:28.491Z,10.7
2019-04-04T11:26:00.217Z,9.6
2019-04-04T11:31:24.848Z,10.7
2019-04-04T11:36:56.669Z,11.9
2019-04-04T11:42:28.359Z,15.6
2019-04-04T11:47:53.676Z,8.4
2019-04-04T11:53:23.847Z,9.6
2019-04-04T11:58:55.596Z,11.9
2019-04-04T12:04:27.154Z,10.7
2019-04-04T12:10:07.044Z,9.6
2019-04-04T12:15:25.014Z,0
2019-04-04T12:20:56.166Z,0
2019-04-04T12:26:27.473Z,7.2
2019-04-04T12:31:51.666Z,4.8
2019-04-04T12:37:15.247Z,5.9
2019-04-04T12:42:47.084Z,10.7
2019-04-04T12:48:18.117Z,8.4
2019-04-04T12:53:42.022Z,7.2
2019-04-04T12:59:13.621Z,10.7
2019-04-04T13:04:45.495Z,10.7
2019-04-04T13:10:16.789Z,8.4
2019-04-04T13:15:48.538Z,9.6
2019-04-04T13:21:21.554Z,9.6
2019-04-04T13:26:51.901Z,10.7
2019-04-04T13:32:14.875Z,5.9
2019-04-04T13:37:46.410Z,8.4
2019-04-04T13:43:18.173Z,9.6
2019-04-04T13:48:43.495Z,11.9
2019-04-04T13:54:14.340Z,8.4
2019-04-04T13:59:39.399Z,8.4
2019-04-04T14:05:09.474Z,0
2019-04-04T14:10:27.997Z,0
2019-04-04T14:15:59.182Z,0
2019-04-04T14:21:23.019Z,0
2019-04-04T14:26:46.539Z,8.4
2019-04-04T14:32:17.589Z,0
2019-04-04T14:37:40.407Z,0
2019-04-04T14:43:11.475Z,0
2019-04-04T14:48:35.088Z,0
2019-04-04T14:54:06.228Z,0
2019-04-04T14:59:28.966Z,0
2019-04-04T15:05:00.065Z,0
2019-04-04T15:10:25.503Z,0
2019-04-04T15:15:56.535Z,0
2019-04-04T15:21:23.284Z,0
2019-04-04T15:26:54.411Z,0
2019-04-04T15:32:18.499Z,0
2019-04-04T15:37:49.603Z,0
2019-04-04T15:43:13.405Z,0
2019-04-04T15:48:44.478Z,0
2019-04-04T15:54:10.757Z,7.2
2019-04-04T15:59:41.954Z,7.2
2019-04-04T16:05:07.017Z,0
2019-04-04T16:10:38.125Z,0
2019-04-04T16:16:09.065Z,0
2019-04-04T16:21:35.718Z,0
2019-04-04T16:27:06.800Z,0
2019-04-04T16:32:37.821Z,0
2019-04-04T16:38:03.619Z,0
2019-04-04T16:43:34.731Z,0
2019-04-04T16:49:05.774Z,0
2019-04-04T16:54:29.643Z,0
2019-04-04T17:00:00.656Z,0
2019-04-04T17:05:23.885Z,0
2019-04-04T17:10:54.860Z,0
2019-04-04T17:16:25.878Z,0
2019-04-04T17:21:56.818Z,0
2019-04-04T17:27:22.459Z,0
2019-04-04T17:32:53.468Z,0
2019-04-04T17:38:24.374Z,0
2019-04-04T17:43:47.368Z,0
2019-04-04T17:49:18.084Z,0
2019-04-04T17:54:49.107Z,0
2019-04-04T18:00:19.968Z,0
2019-04-04T18:05:50.949Z,0
2019-04-04T18:11:15.755Z,0
2019-04-04T18:16:46.674Z,0
2019-04-04T18:22:20.577Z,0
2019-04-04T18:27:48.505Z,0
2019-04-04T18:33:19.928Z,0
2019-04-04T18:38:50.418Z,0
2019-04-04T18:44:13.868Z,0
2019-04-04T18:49:44.679Z,0
2019-04-04T18:55:19.802Z,0
2019-04-04T19:00:46.583Z,0
2019-04-04T19:06:17.475Z,0
2019-04-04T19:11:48.409Z,0
2019-04-04T19:17:19.313Z,0
2019-04-04T19:22:50.217Z,0
2019-04-04T19:28:21.151Z,0
2019-04-04T19:33:52.074Z,0
2019-04-04T19:39:22.937Z,0
2019-04-04T19:44:53.355Z,0
2019-04-04T19:50:19.821Z,0
2019-04-04T19:55:51.258Z,0
2019-04-04T20:01:21.633Z,0
2019-04-04T20:06:52.471Z,0
2019-04-04T20:12:23.361Z,0
2019-04-04T20:17:54.271Z,0
2019-04-04T20:23:25.178Z,0
2019-04-04T20:28:56.109Z,0
2019-04-04T20:34:26.903Z,0
2019-04-04T20:39:57.792Z,0
2019-04-04T20:45:28.619Z,0
2019-04-04T20:50:59.436Z,0
2019-04-04T20:56:31.036Z,8.4
2019-04-04T21:02:02.672Z,8.4
2019-04-04T21:07:34.284Z,8.4
2019-04-04T21:13:05.516Z,5.9
2019-04-04T21:18:36.313Z,0
2019-04-04T21:24:07.115Z,0
2019-04-04T21:29:37.859Z,0
2019-04-04T21:35:08.651Z,0
2019-04-04T21:40:39.438Z,0
2019-04-04T21:46:10.210Z,0
2019-04-04T21:51:40.946Z,0
2019-04-04T21:57:11.667Z,0
2019-04-04T22:02:42.507Z,0
2019-04-04T22:08:13.180Z,0
2019-04-04T22:13:43.976Z,0
2019-04-04T22:19:14.797Z,0
2019-04-04T22:24:45.571Z,0
2019-04-04T22:30:16.860Z,9.6
2019-04-04T22:35:48.416Z,9.6
2019-04-04T22:41:20.036Z,9.6
2019-04-04T22:46:51.749Z,11.9
2019-04-04T22:52:23.368Z,11.9
2019-04-04T22:57:54.953Z,9.6
2019-04-04T23:03:28.450Z,10.7
2019-04-04T23:08:58.102Z,7.2
2019-04-04T23:14:29.717Z,8.4
2019-04-04T23:20:01.297Z,9.6
2019-04-04T23:25:32.904Z,9.6
2019-04-04T23:31:04.419Z,9.6
2019-04-04T23:36:36.057Z,9.6
2019-04-04T23:42:07.346Z,8.4
2019-04-04T23:47:42.945Z,0
2019-04-04T23:53:08.899Z,0
2019-04-04T23:58:40.207Z,5.9
